TimeEDT,TemperatureF,Dew PointF,Humidity,Sea Level PressureIn,VisibilityMPH,Wind Direction,Wind SpeedMPH,Gust SpeedMPH,PrecipitationIn,Events,Conditions,WindDirDegrees,DateUTC
12:54 AM,59.0,48.0,67,30.31,10.0,NNE,10.4,-,N/A,,Clear,30,2012-10-13 04:54:00
1:54 AM,59.0,48.9,69,30.32,10.0,NNE,13.8,-,N/A,,Clear,30,2012-10-13 05:54:00
2:54 AM,57.0,50.0,77,30.33,10.0,NNE,15.0,-,N/A,,Clear,30,2012-10-13 06:54:00
3:54 AM,55.9,46.9,72,30.33,10.0,NE,10.4,-,N/A,,Clear,40,2012-10-13 07:54:00
4:54 AM,55.0,46.0,72,30.34,10.0,NE,9.2,-,N/A,,Clear,40,2012-10-13 08:54:00
5:54 AM,54.0,46.0,75,30.35,10.0,NE,8.1,-,N/A,,Clear,40,2012-10-13 09:54:00
6:54 AM,53.1,46.0,77,30.38,10.0,North,6.9,-,N/A,,Clear,10,2012-10-13 10:54:00
7:54 AM,54.0,46.0,75,30.40,10.0,North,6.9,-,N/A,,Clear,10,2012-10-13 11:54:00
8:54 AM,57.9,48.0,70,30.40,10.0,NNE,10.4,-,N/A,,Clear,30,2012-10-13 12:54:00
9:54 AM,64.0,50.0,60,30.42,10.0,ENE,16.1,25.3,N/A,,Clear,60,2012-10-13 13:54:00
10:54 AM,64.9,50.0,58,30.42,10.0,ENE,15.0,-,N/A,,Clear,70,2012-10-13 14:54:00
11:54 AM,66.9,50.0,54,30.42,10.0,ENE,19.6,25.3,N/A,,Clear,70,2012-10-13 15:54:00
12:54 PM,66.9,48.0,51,30.41,10.0,East,15.0,24.2,N/A,,Clear,90,2012-10-13 16:54:00
1:54 PM,68.0,45.0,43,30.39,10.0,ENE,13.8,-,N/A,,Clear,60,2012-10-13 17:54:00
2:54 PM,68.0,45.0,43,30.37,10.0,ENE,11.5,-,N/A,,Clear,70,2012-10-13 18:54:00
3:54 PM,68.0,43.0,40,30.36,10.0,ENE,6.9,-,N/A,,Clear,70,2012-10-13 19:54:00
4:54 PM,68.0,46.0,45,30.35,10.0,ENE,8.1,-,N/A,,Clear,60,2012-10-13 20:54:00
5:54 PM,66.0,46.9,50,30.36,10.0,NE,8.1,-,N/A,,Clear,50,2012-10-13 21:54:00
6:54 PM,62.1,48.0,60,30.36,10.0,East,4.6,-,N/A,,Clear,80,2012-10-13 22:54:00
7:54 PM,57.0,48.9,74,30.36,10.0,Calm,Calm,-,N/A,,Clear,0,2012-10-13 23:54:00
8:54 PM,55.0,48.9,80,30.37,10.0,Calm,Calm,-,N/A,,Clear,0,2012-10-14 00:54:00
9:54 PM,55.0,48.0,77,30.35,10.0,ESE,3.5,-,N/A,,Clear,120,2012-10-14 01:54:00
10:54 PM,57.0,48.0,72,30.35,10.0,Calm,Calm,-,N/A,,Clear,0,2012-10-14 02:54:00
11:54 PM,55.0,51.1,86,30.34,10.0,Calm,Calm,-,N/A,,Clear,0,2012-10-14 03:54:00